sensor_id;sensor_type;location;lat;lon;timestamp;temperature;humidity
39847;DHT22;25517;52.422;10.782;2023-02-05T00:01:28;-0.30;99.90
39847;DHT22;25517;52.422;10.782;2023-02-05T00:03:54;-0.30;99.90
39847;DHT22;25517;52.422;10.782;2023-02-05T00:06:20;-0.30;99.90
39847;DHT22;25517;52.422;10.782;2023-02-05T00:08:45;-0.30;99.90
39847;DHT22;25517;52.422;10.782;2023-02-05T00:11:11;-0.40;99.90
39847;DHT22;25517;52.422;10.782;2023-02-05T00:13:39;-0.40;99.90
39847;DHT22;25517;52.422;10.782;2023-02-05T00:16:10;-0.40;99.90
39847;DHT22;25517;52.422;10.782;2023-02-05T00:18:36;-0.40;99.90
39847;DHT22;25517;52.422;10.782;2023-02-05T00:21:02;-0.40;99.90
39847;DHT22;25517;52.422;10.782;2023-02-05T00:23:28;-0.40;99.90
39847;DHT22;25517;52.422;10.782;2023-02-05T00:25:54;-0.40;99.90
39847;DHT22;25517;52.422;10.782;2023-02-05T00:28:19;-0.40;99.90
39847;DHT22;25517;52.422;10.782;2023-02-05T00:30:45;-0.40;99.90
39847;DHT22;25517;52.422;10.782;2023-02-05T00:33:10;-0.40;99.90
39847;DHT22;25517;52.422;10.782;2023-02-05T00:35:36;-0.40;99.90
39847;DHT22;25517;52.422;10.782;2023-02-05T00:38:01;-0.40;99.90
39847;DHT22;25517;52.422;10.782;2023-02-05T00:40:27;-0.40;99.90
39847;DHT22;25517;52.422;10.782;2023-02-05T00:42:52;-0.40;99.90
39847;DHT22;25517;52.422;10.782;2023-02-05T00:45:18;-0.40;99.90
39847;DHT22;25517;52.422;10.782;2023-02-05T00:47:43;-0.40;99.90
39847;DHT22;25517;52.422;10.782;2023-02-05T00:50:09;-0.40;99.90
39847;DHT22;25517;52.422;10.782;2023-02-05T00:52:34;-0.40;99.90
39847;DHT22;25517;52.422;10.782;2023-02-05T00:55:00;-0.50;99.90
39847;DHT22;25517;52.422;10.782;2023-02-05T00:57:25;-0.50;99.90
39847;DHT22;25517;52.422;10.782;2023-02-05T00:59:51;-0.50;99.90
39847;DHT22;25517;52.422;10.782;2023-02-05T01:02:18;-0.50;99.90
39847;DHT22;25517;52.422;10.782;2023-02-05T01:04:51;-0.50;99.90
39847;DHT22;25517;52.422;10.782;2023-02-05T01:07:18;-0.50;99.90
39847;DHT22;25517;52.422;10.782;2023-02-05T01:09:44;-0.60;99.90
39847;DHT22;25517;52.422;10.782;2023-02-05T01:12:09;-0.60;99.90
39847;DHT22;25517;52.422;10.782;2023-02-05T01:14:35;-0.60;99.90
39847;DHT22;25517;52.422;10.782;2023-02-05T01:17:01;-0.60;99.90
39847;DHT22;25517;52.422;10.782;2023-02-05T01:19:26;-0.60;99.90
39847;DHT22;25517;52.422;10.782;2023-02-05T01:21:52;-0.50;99.90
39847;DHT22;25517;52.422;10.782;2023-02-05T01:24:17;-0.60;99.90
39847;DHT22;25517;52.422;10.782;2023-02-05T01:26:43;-0.60;99.90
39847;DHT22;25517;52.422;10.782;2023-02-05T01:29:09;-0.60;99.90
39847;DHT22;25517;52.422;10.782;2023-02-05T01:31:35;-0.60;99.90
39847;DHT22;25517;52.422;10.782;2023-02-05T01:34:00;-0.60;99.90
39847;DHT22;25517;52.422;10.782;2023-02-05T01:36:26;-0.60;99.90
39847;DHT22;25517;52.422;10.782;2023-02-05T01:38:51;-0.70;99.90
39847;DHT22;25517;52.422;10.782;2023-02-05T01:41:19;-0.70;99.90
39847;DHT22;25517;52.422;10.782;2023-02-05T01:44:07;-0.70;99.90
39847;DHT22;25517;52.422;10.782;2023-02-05T01:46:35;-0.70;99.90
39847;DHT22;25517;52.422;10.782;2023-02-05T01:49:02;-0.70;99.90
39847;DHT22;25517;52.422;10.782;2023-02-05T01:51:29;-0.70;99.90
39847;DHT22;25517;52.422;10.782;2023-02-05T01:53:56;-0.70;99.90
39847;DHT22;25517;52.422;10.782;2023-02-05T01:56:27;-0.80;99.90
39847;DHT22;25517;52.422;10.782;2023-02-05T01:59:06;-0.80;99.90
39847;DHT22;25517;52.422;10.782;2023-02-05T02:01:33;-0.80;99.90
39847;DHT22;25517;52.422;10.782;2023-02-05T02:04:00;-0.80;99.90
39847;DHT22;25517;52.422;10.782;2023-02-05T02:06:32;-0.80;99.90
39847;DHT22;25517;52.422;10.782;2023-02-05T02:08:58;-0.80;99.90
39847;DHT22;25517;52.422;10.782;2023-02-05T02:11:26;-0.80;99.90
39847;DHT22;25517;52.422;10.782;2023-02-05T02:13:54;-0.80;99.90
39847;DHT22;25517;52.422;10.782;2023-02-05T02:16:22;-0.90;99.90
39847;DHT22;25517;52.422;10.782;2023-02-05T02:18:48;-0.90;99.90
39847;DHT22;25517;52.422;10.782;2023-02-05T02:24:06;-0.90;99.90
39847;DHT22;25517;52.422;10.782;2023-02-05T02:27:00;-0.90;99.90
39847;DHT22;25517;52.422;10.782;2023-02-05T02:32:30;-0.90;99.90
39847;DHT22;25517;52.422;10.782;2023-02-05T02:35:13;-0.90;99.90
39847;DHT22;25517;52.422;10.782;2023-02-05T02:40:49;-0.90;99.90
39847;DHT22;25517;52.422;10.782;2023-02-05T02:43:23;-1.00;99.90
39847;DHT22;25517;52.422;10.782;2023-02-05T02:45:54;-1.00;99.90
39847;DHT22;25517;52.422;10.782;2023-02-05T02:48:23;-1.00;99.90
39847;DHT22;25517;52.422;10.782;2023-02-05T02:50:51;-1.10;99.90
39847;DHT22;25517;52.422;10.782;2023-02-05T02:53:28;-1.10;99.90
39847;DHT22;25517;52.422;10.782;2023-02-05T02:55:56;-1.00;99.90
39847;DHT22;25517;52.422;10.782;2023-02-05T02:58:26;-1.00;99.90
39847;DHT22;25517;52.422;10.782;2023-02-05T03:00:54;-1.10;99.90
39847;DHT22;25517;52.422;10.782;2023-02-05T03:03:23;-1.10;99.90
39847;DHT22;25517;52.422;10.782;2023-02-05T03:05:51;-1.10;99.90
39847;DHT22;25517;52.422;10.782;2023-02-05T03:08:44;-1.10;99.90
39847;DHT22;25517;52.422;10.782;2023-02-05T03:11:12;-1.10;99.90
39847;DHT22;25517;52.422;10.782;2023-02-05T03:13:39;-1.20;99.90
39847;DHT22;25517;52.422;10.782;2023-02-05T03:16:05;-1.20;99.90
39847;DHT22;25517;52.422;10.782;2023-02-05T03:18:31;-1.20;99.90
39847;DHT22;25517;52.422;10.782;2023-02-05T03:21:00;-1.20;99.90
39847;DHT22;25517;52.422;10.782;2023-02-05T03:23:28;-1.20;99.90
39847;DHT22;25517;52.422;10.782;2023-02-05T03:25:53;-1.20;99.90
39847;DHT22;25517;52.422;10.782;2023-02-05T03:28:20;-1.20;99.90
39847;DHT22;25517;52.422;10.782;2023-02-05T03:31:09;-1.20;99.90
39847;DHT22;25517;52.422;10.782;2023-02-05T03:37:08;-1.10;99.90
39847;DHT22;25517;52.422;10.782;2023-02-05T03:40:10;-1.10;99.90
39847;DHT22;25517;52.422;10.782;2023-02-05T03:48:29;-1.10;99.90
39847;DHT22;25517;52.422;10.782;2023-02-05T03:54:11;-1.00;99.90
39847;DHT22;25517;52.422;10.782;2023-02-05T03:59:13;-1.00;99.90
39847;DHT22;25517;52.422;10.782;2023-02-05T04:01:41;-1.00;99.90
39847;DHT22;25517;52.422;10.782;2023-02-05T04:04:07;-0.90;99.90
39847;DHT22;25517;52.422;10.782;2023-02-05T04:06:32;-0.90;99.90
39847;DHT22;25517;52.422;10.782;2023-02-05T04:08:58;-0.80;99.90
39847;DHT22;25517;52.422;10.782;2023-02-05T04:11:23;-0.80;99.90
39847;DHT22;25517;52.422;10.782;2023-02-05T04:13:49;-0.80;99.90
39847;DHT22;25517;52.422;10.782;2023-02-05T04:16:15;-0.70;99.90
39847;DHT22;25517;52.422;10.782;2023-02-05T04:18:40;-0.70;99.90
39847;DHT22;25517;52.422;10.782;2023-02-05T04:21:06;-0.70;99.90
39847;DHT22;25517;52.422;10.782;2023-02-05T04:23:31;-0.60;99.90
39847;DHT22;25517;52.422;10.782;2023-02-05T04:25:57;-0.60;99.90
39847;DHT22;25517;52.422;10.782;2023-02-05T04:28:22;-0.60;99.90
39847;DHT22;25517;52.422;10.782;2023-02-05T04:30:48;-0.60;99.90
39847;DHT22;25517;52.422;10.782;2023-02-05T04:33:13;-0.50;99.90
39847;DHT22;25517;52.422;10.782;2023-02-05T04:35:39;-0.50;99.90
39847;DHT22;25517;52.422;10.782;2023-02-05T04:38:04;-0.50;99.90
39847;DHT22;25517;52.422;10.782;2023-02-05T04:40:30;-0.40;99.90
39847;DHT22;25517;52.422;10.782;2023-02-05T04:42:56;-0.50;99.90
39847;DHT22;25517;52.422;10.782;2023-02-05T04:45:21;-0.50;99.90
39847;DHT22;25517;52.422;10.782;2023-02-05T04:47:47;-0.50;99.90
39847;DHT22;25517;52.422;10.782;2023-02-05T04:50:13;-0.50;99.90
39847;DHT22;25517;52.422;10.782;2023-02-05T04:52:39;-0.50;99.90
39847;DHT22;25517;52.422;10.782;2023-02-05T04:55:05;-0.50;99.90
39847;DHT22;25517;52.422;10.782;2023-02-05T04:57:30;-0.50;99.90
39847;DHT22;25517;52.422;10.782;2023-02-05T04:59:56;-0.50;99.90
39847;DHT22;25517;52.422;10.782;2023-02-05T05:02:22;-0.50;99.90
39847;DHT22;25517;52.422;10.782;2023-02-05T05:04:48;-0.40;99.90
39847;DHT22;25517;52.422;10.782;2023-02-05T05:07:14;-0.40;99.90
39847;DHT22;25517;52.422;10.782;2023-02-05T05:09:40;-0.40;99.90
39847;DHT22;25517;52.422;10.782;2023-02-05T05:12:06;-0.40;99.90
39847;DHT22;25517;52.422;10.782;2023-02-05T05:14:32;-0.40;99.90
39847;DHT22;25517;52.422;10.782;2023-02-05T05:16:57;-0.40;99.90
39847;DHT22;25517;52.422;10.782;2023-02-05T05:19:23;-0.40;99.90
39847;DHT22;25517;52.422;10.782;2023-02-05T05:21:48;-0.40;99.90
39847;DHT22;25517;52.422;10.782;2023-02-05T05:24:14;-0.40;99.90
39847;DHT22;25517;52.422;10.782;2023-02-05T05:26:39;-0.40;99.90
39847;DHT22;25517;52.422;10.782;2023-02-05T05:29:10;-0.40;99.90
39847;DHT22;25517;52.422;10.782;2023-02-05T05:31:35;-0.40;99.90
39847;DHT22;25517;52.422;10.782;2023-02-05T05:34:01;-0.40;99.90
39847;DHT22;25517;52.422;10.782;2023-02-05T05:36:26;-0.40;99.90
39847;DHT22;25517;52.422;10.782;2023-02-05T05:38:52;-0.30;99.90
39847;DHT22;25517;52.422;10.782;2023-02-05T05:41:22;-0.30;99.90
39847;DHT22;25517;52.422;10.782;2023-02-05T05:44:07;-0.30;99.90
39847;DHT22;25517;52.422;10.782;2023-02-05T05:46:33;-0.30;99.90
39847;DHT22;25517;52.422;10.782;2023-02-05T05:49:00;-0.20;99.90
39847;DHT22;25517;52.422;10.782;2023-02-05T05:51:27;-0.20;99.90
39847;DHT22;25517;52.422;10.782;2023-02-05T05:53:53;-0.20;99.90
39847;DHT22;25517;52.422;10.782;2023-02-05T05:56:20;-0.20;99.90
39847;DHT22;25517;52.422;10.782;2023-02-05T05:58:47;-0.20;99.90
39847;DHT22;25517;52.422;10.782;2023-02-05T06:01:14;-0.10;99.90
39847;DHT22;25517;52.422;10.782;2023-02-05T06:03:40;-0.10;99.90
39847;DHT22;25517;52.422;10.782;2023-02-05T06:06:07;-0.10;99.90
39847;DHT22;25517;52.422;10.782;2023-02-05T06:08:33;-0.10;99.90
39847;DHT22;25517;52.422;10.782;2023-02-05T06:10:59;-0.10;99.90
39847;DHT22;25517;52.422;10.782;2023-02-05T06:13:24;-0.10;99.90
39847;DHT22;25517;52.422;10.782;2023-02-05T06:15:50;-0.10;99.90
39847;DHT22;25517;52.422;10.782;2023-02-05T06:18:17;-0.10;99.90
39847;DHT22;25517;52.422;10.782;2023-02-05T06:20:43;-0.10;99.90
39847;DHT22;25517;52.422;10.782;2023-02-05T06:23:09;-0.10;99.90
39847;DHT22;25517;52.422;10.782;2023-02-05T06:25:34;0.00;99.90
39847;DHT22;25517;52.422;10.782;2023-02-05T06:28:00;-0.10;99.90
39847;DHT22;25517;52.422;10.782;2023-02-05T06:30:26;0.00;99.90
39847;DHT22;25517;52.422;10.782;2023-02-05T06:32:51;0.00;99.90
39847;DHT22;25517;52.422;10.782;2023-02-05T06:35:17;0.00;99.90
39847;DHT22;25517;52.422;10.782;2023-02-05T06:37:43;0.00;99.90
39847;DHT22;25517;52.422;10.782;2023-02-05T06:40:09;0.10;99.90
39847;DHT22;25517;52.422;10.782;2023-02-05T06:42:35;0.10;99.90
39847;DHT22;25517;52.422;10.782;2023-02-05T06:45:01;0.10;99.90
39847;DHT22;25517;52.422;10.782;2023-02-05T06:47:26;0.10;99.90
39847;DHT22;25517;52.422;10.782;2023-02-05T06:49:52;0.20;99.90
39847;DHT22;25517;52.422;10.782;2023-02-05T06:52:17;0.20;99.90
39847;DHT22;25517;52.422;10.782;2023-02-05T06:54:43;0.20;99.90
39847;DHT22;25517;52.422;10.782;2023-02-05T06:57:09;0.30;99.90
39847;DHT22;25517;52.422;10.782;2023-02-05T06:59:35;0.30;99.90
39847;DHT22;25517;52.422;10.782;2023-02-05T07:02:01;0.30;99.90
39847;DHT22;25517;52.422;10.782;2023-02-05T07:04:27;0.30;99.90
39847;DHT22;25517;52.422;10.782;2023-02-05T07:06:55;0.40;99.90
39847;DHT22;25517;52.422;10.782;2023-02-05T07:09:21;0.40;99.90
39847;DHT22;25517;52.422;10.782;2023-02-05T07:11:46;0.40;99.90
39847;DHT22;25517;52.422;10.782;2023-02-05T07:14:12;0.50;99.90
39847;DHT22;25517;52.422;10.782;2023-02-05T07:16:37;0.40;99.90
39847;DHT22;25517;52.422;10.782;2023-02-05T07:19:03;0.40;99.90
39847;DHT22;25517;52.422;10.782;2023-02-05T07:21:28;0.40;99.90
39847;DHT22;25517;52.422;10.782;2023-02-05T07:23:54;0.50;99.90
39847;DHT22;25517;52.422;10.782;2023-02-05T07:26:19;0.50;99.90
39847;DHT22;25517;52.422;10.782;2023-02-05T07:28:45;0.60;99.90
39847;DHT22;25517;52.422;10.782;2023-02-05T07:31:13;0.60;99.90
39847;DHT22;25517;52.422;10.782;2023-02-05T07:33:43;0.70;99.90
39847;DHT22;25517;52.422;10.782;2023-02-05T07:36:11;0.70;99.90
39847;DHT22;25517;52.422;10.782;2023-02-05T07:38:37;0.70;99.90
39847;DHT22;25517;52.422;10.782;2023-02-05T07:41:08;0.70;99.90
39847;DHT22;25517;52.422;10.782;2023-02-05T07:43:34;0.80;99.90
39847;DHT22;25517;52.422;10.782;2023-02-05T07:46:03;0.90;99.90
39847;DHT22;25517;52.422;10.782;2023-02-05T07:48:29;0.90;99.90
39847;DHT22;25517;52.422;10.782;2023-02-05T07:50:54;0.90;99.90
39847;DHT22;25517;52.422;10.782;2023-02-05T07:53:20;0.90;99.90
39847;DHT22;25517;52.422;10.782;2023-02-05T07:55:46;0.90;99.90
39847;DHT22;25517;52.422;10.782;2023-02-05T07:58:12;0.80;99.90
39847;DHT22;25517;52.422;10.782;2023-02-05T08:00:38;0.80;99.90
39847;DHT22;25517;52.422;10.782;2023-02-05T08:03:04;0.90;99.90
39847;DHT22;25517;52.422;10.782;2023-02-05T08:05:29;0.90;99.90
39847;DHT22;25517;52.422;10.782;2023-02-05T08:07:55;0.90;99.90
39847;DHT22;25517;52.422;10.782;2023-02-05T08:10:20;0.90;99.90
39847;DHT22;25517;52.422;10.782;2023-02-05T08:12:46;1.00;99.90
39847;DHT22;25517;52.422;10.782;2023-02-05T08:15:12;1.00;99.90
39847;DHT22;25517;52.422;10.782;2023-02-05T08:17:37;1.00;99.90
39847;DHT22;25517;52.422;10.782;2023-02-05T08:20:04;1.00;99.90
39847;DHT22;25517;52.422;10.782;2023-02-05T08:22:33;1.10;99.90
39847;DHT22;25517;52.422;10.782;2023-02-05T08:24:59;1.20;99.90
39847;DHT22;25517;52.422;10.782;2023-02-05T08:27:25;1.20;99.90
39847;DHT22;25517;52.422;10.782;2023-02-05T08:29:50;1.20;99.90
39847;DHT22;25517;52.422;10.782;2023-02-05T08:32:16;1.20;99.90
39847;DHT22;25517;52.422;10.782;2023-02-05T08:34:42;1.20;99.90
39847;DHT22;25517;52.422;10.782;2023-02-05T08:37:07;1.20;99.90
39847;DHT22;25517;52.422;10.782;2023-02-05T08:39:33;1.30;99.90
39847;DHT22;25517;52.422;10.782;2023-02-05T08:41:58;1.40;99.90
39847;DHT22;25517;52.422;10.782;2023-02-05T08:44:24;1.40;99.90
39847;DHT22;25517;52.422;10.782;2023-02-05T08:46:50;1.40;99.90
39847;DHT22;25517;52.422;10.782;2023-02-05T08:49:15;1.50;99.90
39847;DHT22;25517;52.422;10.782;2023-02-05T08:51:41;1.60;99.90
39847;DHT22;25517;52.422;10.782;2023-02-05T08:54:07;1.60;99.90
39847;DHT22;25517;52.422;10.782;2023-02-05T08:56:41;1.60;99.90
39847;DHT22;25517;52.422;10.782;2023-02-05T08:59:08;1.80;99.90
39847;DHT22;25517;52.422;10.782;2023-02-05T09:01:34;1.90;99.90
39847;DHT22;25517;52.422;10.782;2023-02-05T09:04:11;2.00;99.90
39847;DHT22;25517;52.422;10.782;2023-02-05T09:06:38;2.00;99.90
39847;DHT22;25517;52.422;10.782;2023-02-05T09:09:03;2.00;99.90
39847;DHT22;25517;52.422;10.782;2023-02-05T09:11:29;1.90;99.90
39847;DHT22;25517;52.422;10.782;2023-02-05T09:13:56;2.00;99.90
39847;DHT22;25517;52.422;10.782;2023-02-05T09:16:22;2.00;99.90
39847;DHT22;25517;52.422;10.782;2023-02-05T09:18:48;2.10;99.90
39847;DHT22;25517;52.422;10.782;2023-02-05T09:21:14;2.10;99.90
39847;DHT22;25517;52.422;10.782;2023-02-05T09:23:41;2.10;99.90
39847;DHT22;25517;52.422;10.782;2023-02-05T09:26:07;2.10;99.90
39847;DHT22;25517;52.422;10.782;2023-02-05T09:28:34;2.00;99.90
39847;DHT22;25517;52.422;10.782;2023-02-05T09:31:05;2.10;99.90
39847;DHT22;25517;52.422;10.782;2023-02-05T09:33:31;2.10;99.90
39847;DHT22;25517;52.422;10.782;2023-02-05T09:35:57;2.20;99.90
39847;DHT22;25517;52.422;10.782;2023-02-05T09:38:23;2.30;99.90
39847;DHT22;25517;52.422;10.782;2023-02-05T09:41:04;2.30;99.90
39847;DHT22;25517;52.422;10.782;2023-02-05T09:44:08;2.30;99.90
39847;DHT22;25517;52.422;10.782;2023-02-05T09:47:04;2.30;99.90
39847;DHT22;25517;52.422;10.782;2023-02-05T09:52:37;2.60;99.90
39847;DHT22;25517;52.422;10.782;2023-02-05T09:55:20;2.70;99.90
39847;DHT22;25517;52.422;10.782;2023-02-05T09:57:48;2.70;99.90
39847;DHT22;25517;52.422;10.782;2023-02-05T10:00:24;2.70;99.90
39847;DHT22;25517;52.422;10.782;2023-02-05T10:02:57;2.80;99.90
39847;DHT22;25517;52.422;10.782;2023-02-05T10:05:28;2.90;99.90
39847;DHT22;25517;52.422;10.782;2023-02-05T10:08:21;2.80;99.90
39847;DHT22;25517;52.422;10.782;2023-02-05T10:10:52;3.00;99.90
39847;DHT22;25517;52.422;10.782;2023-02-05T10:13:36;3.10;99.90
39847;DHT22;25517;52.422;10.782;2023-02-05T10:16:28;3.20;99.90
39847;DHT22;25517;52.422;10.782;2023-02-05T10:30:06;3.40;99.90
39847;DHT22;25517;52.422;10.782;2023-02-05T10:32:56;3.40;99.90
39847;DHT22;25517;52.422;10.782;2023-02-05T10:36:25;3.50;99.90
39847;DHT22;25517;52.422;10.782;2023-02-05T10:38:22;3.40;99.90
39847;DHT22;25517;52.422;10.782;2023-02-05T10:40:50;3.50;99.90
39847;DHT22;25517;52.422;10.782;2023-02-05T10:46:13;3.40;99.90
39847;DHT22;25517;52.422;10.782;2023-02-05T10:48:50;3.50;99.90
39847;DHT22;25517;52.422;10.782;2023-02-05T10:51:23;3.50;99.90
39847;DHT22;25517;52.422;10.782;2023-02-05T10:53:52;3.50;99.90
39847;DHT22;25517;52.422;10.782;2023-02-05T10:56:18;3.50;99.90
39847;DHT22;25517;52.422;10.782;2023-02-05T10:58:57;3.50;99.90
39847;DHT22;25517;52.422;10.782;2023-02-05T11:06:25;3.40;99.90
39847;DHT22;25517;52.422;10.782;2023-02-05T11:08:51;3.40;99.90
39847;DHT22;25517;52.422;10.782;2023-02-05T11:11:30;3.50;99.90
39847;DHT22;25517;52.422;10.782;2023-02-05T11:13:56;3.50;99.90
39847;DHT22;25517;52.422;10.782;2023-02-05T11:16:34;3.60;99.90
39847;DHT22;25517;52.422;10.782;2023-02-05T11:19:01;3.60;99.90
39847;DHT22;25517;52.422;10.782;2023-02-05T11:22:08;3.60;99.90
39847;DHT22;25517;52.422;10.782;2023-02-05T11:24:37;3.70;99.90
39847;DHT22;25517;52.422;10.782;2023-02-05T11:27:25;3.70;99.90
39847;DHT22;25517;52.422;10.782;2023-02-05T11:29:53;3.70;99.90
39847;DHT22;25517;52.422;10.782;2023-02-05T11:32:39;3.60;99.90
39847;DHT22;25517;52.422;10.782;2023-02-05T11:35:21;3.70;99.90
39847;DHT22;25517;52.422;10.782;2023-02-05T11:38:08;3.80;99.90
39847;DHT22;25517;52.422;10.782;2023-02-05T11:40:34;3.80;99.90
39847;DHT22;25517;52.422;10.782;2023-02-05T11:45:50;4.10;99.90
39847;DHT22;25517;52.422;10.782;2023-02-05T11:50:48;4.40;99.90
39847;DHT22;25517;52.422;10.782;2023-02-05T11:53:15;4.60;99.90
39847;DHT22;25517;52.422;10.782;2023-02-05T11:55:44;4.70;99.90
39847;DHT22;25517;52.422;10.782;2023-02-05T11:58:24;4.80;99.90
39847;DHT22;25517;52.422;10.782;2023-02-05T12:00:57;4.80;99.90
39847;DHT22;25517;52.422;10.782;2023-02-05T12:03:28;4.80;99.90
39847;DHT22;25517;52.422;10.782;2023-02-05T12:06:01;5.00;99.90
39847;DHT22;25517;52.422;10.782;2023-02-05T12:08:37;4.90;99.90
39847;DHT22;25517;52.422;10.782;2023-02-05T12:14:03;4.90;99.90
39847;DHT22;25517;52.422;10.782;2023-02-05T12:19:50;4.80;99.90
39847;DHT22;25517;52.422;10.782;2023-02-05T12:43:51;4.50;99.90
39847;DHT22;25517;52.422;10.782;2023-02-05T12:46:42;4.50;99.90
39847;DHT22;25517;52.422;10.782;2023-02-05T12:57:20;4.40;99.90
39847;DHT22;25517;52.422;10.782;2023-02-05T12:59:49;4.40;99.90
39847;DHT22;25517;52.422;10.782;2023-02-05T13:02:31;4.30;99.90
39847;DHT22;25517;52.422;10.782;2023-02-05T13:05:21;4.30;99.90
39847;DHT22;25517;52.422;10.782;2023-02-05T13:07:59;4.30;99.90
39847;DHT22;25517;52.422;10.782;2023-02-05T13:13:15;4.40;99.90
39847;DHT22;25517;52.422;10.782;2023-02-05T13:15:44;4.40;99.90
39847;DHT22;25517;52.422;10.782;2023-02-05T13:18:24;4.50;99.90
39847;DHT22;25517;52.422;10.782;2023-02-05T13:20:57;4.60;99.90
39847;DHT22;25517;52.422;10.782;2023-02-05T13:23:44;4.70;99.90
39847;DHT22;25517;52.422;10.782;2023-02-05T13:26:36;4.70;99.90
39847;DHT22;25517;52.422;10.782;2023-02-05T13:29:25;4.80;99.90
39847;DHT22;25517;52.422;10.782;2023-02-05T13:32:00;5.00;99.90
39847;DHT22;25517;52.422;10.782;2023-02-05T13:34:28;5.10;99.90
39847;DHT22;25517;52.422;10.782;2023-02-05T13:37:27;5.30;99.90
39847;DHT22;25517;52.422;10.782;2023-02-05T13:40:20;5.40;99.90
39847;DHT22;25517;52.422;10.782;2023-02-05T13:54:11;5.50;99.90
39847;DHT22;25517;52.422;10.782;2023-02-05T14:01:48;5.40;99.90
39847;DHT22;25517;52.422;10.782;2023-02-05T14:04:44;5.30;99.90
39847;DHT22;25517;52.422;10.782;2023-02-05T14:07:24;5.10;99.90
39847;DHT22;25517;52.422;10.782;2023-02-05T14:09:55;5.00;99.90
39847;DHT22;25517;52.422;10.782;2023-02-05T14:12:32;4.90;99.90
39847;DHT22;25517;52.422;10.782;2023-02-05T14:22:49;4.90;99.90
39847;DHT22;25517;52.422;10.782;2023-02-05T14:33:32;4.50;99.90
39847;DHT22;25517;52.422;10.782;2023-02-05T14:38:43;4.30;99.90
39847;DHT22;25517;52.422;10.782;2023-02-05T14:41:14;4.20;99.90
39847;DHT22;25517;52.422;10.782;2023-02-05T14:43:43;4.10;99.90
39847;DHT22;25517;52.422;10.782;2023-02-05T14:49:04;3.90;99.90
39847;DHT22;25517;52.422;10.782;2023-02-05T14:51:38;3.80;99.90
39847;DHT22;25517;52.422;10.782;2023-02-05T14:56:38;3.60;99.90
39847;DHT22;25517;52.422;10.782;2023-02-05T14:59:21;3.50;99.90
39847;DHT22;25517;52.422;10.782;2023-02-05T15:01:54;3.50;99.90
39847;DHT22;25517;52.422;10.782;2023-02-05T15:07:14;3.40;99.90
39847;DHT22;25517;52.422;10.782;2023-02-05T15:09:50;3.30;99.90
39847;DHT22;25517;52.422;10.782;2023-02-05T15:14:57;3.20;99.90
39847;DHT22;25517;52.422;10.782;2023-02-05T15:20:12;3.00;99.90
39847;DHT22;25517;52.422;10.782;2023-02-05T15:23:10;2.90;99.90
39847;DHT22;25517;52.422;10.782;2023-02-05T15:25:37;2.90;99.90
39847;DHT22;25517;52.422;10.782;2023-02-05T15:30:47;2.80;99.90
39847;DHT22;25517;52.422;10.782;2023-02-05T15:33:22;2.80;99.90
39847;DHT22;25517;52.422;10.782;2023-02-05T15:35:50;2.80;99.90
39847;DHT22;25517;52.422;10.782;2023-02-05T15:38:32;2.70;99.90
39847;DHT22;25517;52.422;10.782;2023-02-05T15:41:03;2.70;99.90
39847;DHT22;25517;52.422;10.782;2023-02-05T15:43:29;2.60;99.90
39847;DHT22;25517;52.422;10.782;2023-02-05T15:46:03;2.50;99.90
39847;DHT22;25517;52.422;10.782;2023-02-05T15:48:32;2.40;99.90
39847;DHT22;25517;52.422;10.782;2023-02-05T15:51:01;2.30;99.90
39847;DHT22;25517;52.422;10.782;2023-02-05T15:53:39;2.30;99.90
39847;DHT22;25517;52.422;10.782;2023-02-05T15:58:58;2.20;99.90
39847;DHT22;25517;52.422;10.782;2023-02-05T16:01:31;2.10;99.90
39847;DHT22;25517;52.422;10.782;2023-02-05T16:03:58;2.00;99.90
39847;DHT22;25517;52.422;10.782;2023-02-05T16:06:26;2.00;99.90
39847;DHT22;25517;52.422;10.782;2023-02-05T16:08:52;2.00;99.90
39847;DHT22;25517;52.422;10.782;2023-02-05T16:11:29;2.00;99.90
39847;DHT22;25517;52.422;10.782;2023-02-05T16:14:09;1.90;99.90
39847;DHT22;25517;52.422;10.782;2023-02-05T16:16:36;1.90;99.90
39847;DHT22;25517;52.422;10.782;2023-02-05T16:19:05;1.90;99.90
39847;DHT22;25517;52.422;10.782;2023-02-05T16:21:56;1.90;99.90
39847;DHT22;25517;52.422;10.782;2023-02-05T16:24:35;1.90;99.90
39847;DHT22;25517;52.422;10.782;2023-02-05T16:27:18;1.80;99.90
39847;DHT22;25517;52.422;10.782;2023-02-05T16:29:48;1.80;99.90
39847;DHT22;25517;52.422;10.782;2023-02-05T16:34:46;1.80;99.90
39847;DHT22;25517;52.422;10.782;2023-02-05T16:37:15;1.70;99.90
39847;DHT22;25517;52.422;10.782;2023-02-05T16:39:46;1.60;99.90
39847;DHT22;25517;52.422;10.782;2023-02-05T16:47:37;1.70;99.90
39847;DHT22;25517;52.422;10.782;2023-02-05T16:50:32;1.70;99.90
39847;DHT22;25517;52.422;10.782;2023-02-05T16:52:58;1.80;99.90
39847;DHT22;25517;52.422;10.782;2023-02-05T16:57:50;1.80;99.90
39847;DHT22;25517;52.422;10.782;2023-02-05T17:02:51;1.80;99.90
39847;DHT22;25517;52.422;10.782;2023-02-05T17:05:32;1.80;99.90
39847;DHT22;25517;52.422;10.782;2023-02-05T17:07:59;1.80;99.90
39847;DHT22;25517;52.422;10.782;2023-02-05T17:10:26;1.70;99.90
39847;DHT22;25517;52.422;10.782;2023-02-05T17:12:54;1.70;99.90
39847;DHT22;25517;52.422;10.782;2023-02-05T17:17:51;1.70;99.90
39847;DHT22;25517;52.422;10.782;2023-02-05T17:20:23;1.70;99.90
39847;DHT22;25517;52.422;10.782;2023-02-05T17:25:26;1.70;99.90
39847;DHT22;25517;52.422;10.782;2023-02-05T17:27:52;1.70;99.90
39847;DHT22;25517;52.422;10.782;2023-02-05T17:30:18;1.60;99.90
39847;DHT22;25517;52.422;10.782;2023-02-05T17:32:44;1.60;99.90
39847;DHT22;25517;52.422;10.782;2023-02-05T17:35:19;1.60;99.90
39847;DHT22;25517;52.422;10.782;2023-02-05T17:37:50;1.50;99.90
39847;DHT22;25517;52.422;10.782;2023-02-05T17:40:16;1.50;99.90
39847;DHT22;25517;52.422;10.782;2023-02-05T17:42:44;1.50;99.90
39847;DHT22;25517;52.422;10.782;2023-02-05T17:45:13;1.40;99.90
39847;DHT22;25517;52.422;10.782;2023-02-05T17:47:40;1.40;99.90
39847;DHT22;25517;52.422;10.782;2023-02-05T17:50:07;1.40;99.90
39847;DHT22;25517;52.422;10.782;2023-02-05T17:52:33;1.40;99.90
39847;DHT22;25517;52.422;10.782;2023-02-05T17:54:58;1.40;99.90
39847;DHT22;25517;52.422;10.782;2023-02-05T17:57:24;1.40;99.90
39847;DHT22;25517;52.422;10.782;2023-02-05T17:59:50;1.40;99.90
39847;DHT22;25517;52.422;10.782;2023-02-05T18:02:16;1.40;99.90
39847;DHT22;25517;52.422;10.782;2023-02-05T18:04:42;1.40;99.90
39847;DHT22;25517;52.422;10.782;2023-02-05T18:09:52;1.50;99.90
39847;DHT22;25517;52.422;10.782;2023-02-05T18:12:17;1.50;99.90
39847;DHT22;25517;52.422;10.782;2023-02-05T18:14:43;1.50;99.90
39847;DHT22;25517;52.422;10.782;2023-02-05T18:17:09;1.50;99.90
39847;DHT22;25517;52.422;10.782;2023-02-05T18:19:35;1.50;99.90
39847;DHT22;25517;52.422;10.782;2023-02-05T18:22:00;1.50;99.90
39847;DHT22;25517;52.422;10.782;2023-02-05T18:24:28;1.50;99.90
39847;DHT22;25517;52.422;10.782;2023-02-05T18:26:53;1.60;99.90